Mary Bennett — WDC4592 — position and weather

sailwx.info

Track history (hours):
 
Tides and Currents Weather Stations Pressure Air Temp Water Temp Dewpoint Dewpoint Depression Visibility Wind Speed Wind Dir Waves Ship Positions

Mary Bennett

Owner: Savannah Marine Services, Savannah, GA. More information available from US FCC via Universal Licensing System and Coast Guard Vessel Documentation Center.

Last reported at 2015-Jan-19 01:30 UTC. Time now 2015-Jan-29 20:26 UTC.
Position N 34°40' W 077°04'.
Warning: this ship's position is 10 days out of date.

Length 21 m.

Type: Tug. MMSI: 367027140.

Date/timePositionNaut miles runAvg speedWind from/ knotsBaromVisibWave heightAir tempDewpointWater temp
2015-Jan-19 01:30N 34°40' W 077°04'5 5.6
2015-Jan-19 00:33N 34°42' W 076°58'6 5.9
2015-Jan-18 23:33N 34°43' W 076°51'7 7.0
2015-Jan-18 22:33N 34°43' W 076°42'4 4.4
2015-Jan-18 21:33N 34°47' W 076°41'6 6.1
2015-Jan-18 20:33N 34°53' W 076°41'5 5.1
2015-Jan-18 19:31N 34°58' W 076°41'6 5.7
2015-Jan-18 18:33N 35°02' W 076°37'  
2015-Jan-16 13:30N 34°59' W 076°42'7 6.9
2015-Jan-16 12:33N 34°52' W 076°41'8 7.7
2015-Jan-16 11:33N 34°44' W 076°41'6 5.5
2015-Jan-16 10:33N 34°43' W 076°47'  
2015-Jan-12 20:25N 34°41' W 077°02'4 4.4
2015-Jan-12 19:32N 34°42' W 076°57'6 6.3
2015-Jan-12 18:33N 34°43' W 076°50'7 7.0
2015-Jan-12 17:33N 34°44' W 076°41'6 5.8
2015-Jan-12 16:33N 34°50' W 076°41'5 4.7
2015-Jan-12 15:33N 34°54' W 076°40'4 0.1
2015-Jan-10 23:03N 34°58' W 076°42'4 7.7
2015-Jan-10 22:33N 34°55' W 076°40'6 6.5
2015-Jan-10 21:33N 34°49' W 076°41'7 6.8
2015-Jan-10 20:33N 34°42' W 076°41'8 7.6
2015-Jan-10 19:33N 34°36' W 076°46'10 9.6
2015-Jan-10 18:33N 34°34' W 076°58'  
Track history (hours):
 
Tides and Currents Weather Stations Pressure Air Temp Water Temp Dewpoint Dewpoint Depression Visibility Wind Speed Wind Dir Waves Ship Positions

Mary Bennett

Owner: Savannah Marine Services, Savannah, GA. More information available from US FCC via Universal Licensing System and Coast Guard Vessel Documentation Center.

Last reported at 2015-Jan-19 01:30 UTC. Time now 2015-Jan-29 20:26 UTC.
Position N 34°40' W 077°04'.
Warning: this ship's position is 10 days out of date.

Length 21 m.

Type: Tug. MMSI: 367027140.

Date/timePositionNaut miles runAvg speedWind from/ knotsBaromVisibWave heightAir tempDewpointWater temp
2015-Jan-19 01:30N 34°40' W 077°04'5 5.6
2015-Jan-19 00:33N 34°42' W 076°58'6 5.9
2015-Jan-18 23:33N 34°43' W 076°51'7 7.0
2015-Jan-18 22:33N 34°43' W 076°42'4 4.4
2015-Jan-18 21:33N 34°47' W 076°41'6 6.1
2015-Jan-18 20:33N 34°53' W 076°41'5 5.1
2015-Jan-18 19:31N 34°58' W 076°41'6 5.7
2015-Jan-18 18:33N 35°02' W 076°37'  
2015-Jan-16 13:30N 34°59' W 076°42'7 6.9
2015-Jan-16 12:33N 34°52' W 076°41'8 7.7
2015-Jan-16 11:33N 34°44' W 076°41'6 5.5
2015-Jan-16 10:33N 34°43' W 076°47'  
2015-Jan-12 20:25N 34°41' W 077°02'4 4.4
2015-Jan-12 19:32N 34°42' W 076°57'6 6.3
2015-Jan-12 18:33N 34°43' W 076°50'7 7.0
2015-Jan-12 17:33N 34°44' W 076°41'6 5.8
2015-Jan-12 16:33N 34°50' W 076°41'5 4.7
2015-Jan-12 15:33N 34°54' W 076°40'4 0.1
2015-Jan-10 23:03N 34°58' W 076°42'4 7.7
2015-Jan-10 22:33N 34°55' W 076°40'6 6.5
2015-Jan-10 21:33N 34°49' W 076°41'7 6.8
2015-Jan-10 20:33N 34°42' W 076°41'8 7.6
2015-Jan-10 19:33N 34°36' W 076°46'10 9.6
2015-Jan-10 18:33N 34°34' W 076°58'  

Dump ship's entire track history